createdAt,value
2023-04-27T06:36:07.688Z,3.57
2023-04-27T06:38:36.401Z,3.20
2023-04-27T06:41:05.093Z,3.67
2023-04-27T06:43:34.390Z,2.67
2023-04-27T06:46:03.094Z,3.20
2023-04-27T06:48:32.071Z,2.80
2023-04-27T06:51:01.115Z,3.27
2023-04-27T06:53:29.223Z,3.23
2023-04-27T06:55:57.731Z,2.57
2023-04-27T06:58:27.581Z,3.17
2023-04-27T07:00:56.252Z,3.47
2023-04-27T07:03:25.052Z,2.77
2023-04-27T07:05:53.796Z,3.10
2023-04-27T07:08:22.698Z,2.70
2023-04-27T07:10:51.267Z,2.87
2023-04-27T07:13:19.849Z,3.17
2023-04-27T07:15:48.552Z,3.63
2023-04-27T07:18:17.589Z,3.30
2023-04-27T07:20:46.750Z,3.47
2023-04-27T07:23:15.046Z,3.37
2023-04-27T07:25:44.035Z,2.60
2023-04-27T07:28:12.797Z,2.47
2023-04-27T07:30:42.305Z,3.10
2023-04-27T07:33:10.769Z,3.27
2023-04-27T07:35:40.185Z,3.40
2023-04-27T07:38:09.293Z,2.70
2023-04-27T07:40:37.758Z,2.43
2023-04-27T07:43:06.651Z,2.80
2023-04-27T07:45:36.263Z,2.63
2023-04-27T07:50:59.937Z,2.67
2023-04-27T08:41:59.884Z,2.10
2023-04-27T08:44:28.682Z,2.43
2023-04-27T08:46:57.358Z,2.47
2023-04-27T08:49:26.052Z,2.20
2023-04-27T08:51:54.740Z,2.00
2023-04-27T08:54:23.420Z,2.50
2023-04-27T08:56:52.059Z,1.93
2023-04-27T08:59:20.743Z,2.37
2023-04-27T09:01:49.899Z,2.43
2023-04-27T09:04:20.421Z,2.50
2023-04-27T09:06:49.827Z,2.17
2023-04-27T09:09:25.046Z,2.10
2023-04-27T09:11:53.756Z,2.27
2023-04-27T09:14:23.481Z,2.33
2023-04-27T09:16:58.201Z,2.20
2023-04-27T09:19:27.211Z,2.23
2023-04-27T09:22:05.026Z,1.90
2023-04-27T09:24:34.081Z,2.47
2023-04-27T09:27:03.303Z,2.10
2023-04-27T09:31:59.762Z,2.22
2023-04-27T09:36:55.361Z,2.25
2023-04-27T09:39:23.900Z,2.40
2023-04-27T09:41:52.740Z,1.93
2023-04-27T09:44:21.313Z,2.37
2023-04-27T09:46:50.202Z,2.03
2023-04-27T09:49:19.294Z,1.90
2023-04-27T09:51:47.879Z,2.60
2023-04-27T09:54:17.245Z,2.10
2023-04-27T09:56:49.873Z,1.90
2023-04-27T09:59:31.797Z,2.77
2023-04-27T10:02:07.343Z,2.00
2023-04-27T10:04:39.161Z,1.70
2023-04-27T10:07:13.235Z,2.47
2023-04-27T10:09:42.084Z,2.60
2023-04-27T10:12:19.036Z,3.07
2023-04-27T10:14:55.208Z,2.10
2023-04-27T10:17:28.128Z,2.07
2023-04-27T10:20:01.022Z,2.13
2023-04-27T10:22:40.782Z,1.83
2023-04-27T10:25:25.625Z,2.33
2023-04-27T10:28:01.413Z,2.17
2023-04-27T10:30:33.743Z,2.50
2023-04-27T10:33:04.090Z,2.17
2023-04-27T10:35:43.278Z,2.10
2023-04-27T10:38:12.966Z,1.87
2023-04-27T10:40:41.057Z,2.10
2023-04-27T10:43:13.395Z,2.23
2023-04-27T10:45:42.779Z,2.20
2023-04-27T10:48:13.479Z,2.90
2023-04-27T10:50:42.976Z,2.37
2023-04-27T10:53:11.549Z,1.63
2023-04-27T10:55:40.049Z,2.20
2023-04-27T10:58:08.732Z,2.37
2023-04-27T11:00:38.690Z,2.23
2023-04-27T11:03:15.010Z,1.83
2023-04-27T11:05:45.555Z,1.83
2023-04-27T11:08:15.305Z,2.10
2023-04-27T11:10:48.034Z,1.97
2023-04-27T11:13:16.791Z,1.87
2023-04-27T11:15:46.622Z,2.10
2023-04-27T11:18:16.360Z,3.07
2023-04-27T11:20:46.166Z,2.20
2023-04-27T11:23:17.813Z,2.10
2023-04-27T11:25:46.942Z,2.07
2023-04-27T11:28:20.022Z,2.30
2023-04-27T11:30:49.289Z,1.97
2023-04-27T12:05:34.576Z,1.77
2023-04-27T12:08:03.493Z,2.47
2023-04-27T12:10:32.216Z,2.03
2023-04-27T12:13:01.078Z,2.37
2023-04-27T12:15:29.961Z,2.23
2023-04-27T12:17:58.844Z,2.20
2023-04-27T12:20:27.944Z,2.03
2023-04-27T12:22:56.578Z,2.93
2023-04-27T12:25:25.540Z,2.43
2023-04-27T12:27:54.319Z,1.90
2023-04-27T12:30:24.631Z,2.70
2023-04-27T12:32:53.405Z,2.10
2023-04-27T12:41:03.291Z,1.87
2023-04-27T12:43:33.508Z,1.73
2023-04-27T12:46:15.468Z,2.23
2023-04-27T12:48:44.180Z,1.90
2023-04-27T13:08:29.741Z,2.10
2023-04-27T13:10:58.910Z,1.70
2023-04-27T13:13:26.983Z,2.00
2023-04-27T13:15:56.424Z,2.00
2023-04-27T13:18:25.160Z,2.10
2023-04-27T13:20:53.346Z,1.80
2023-04-27T13:23:21.929Z,2.13
2023-04-27T13:25:50.520Z,2.00
2023-04-27T13:28:19.188Z,1.90
2023-04-27T13:30:49.418Z,1.90
2023-04-27T13:33:23.235Z,2.03
2023-04-27T13:35:48.348Z,2.13
2023-04-27T13:38:17.023Z,1.93
2023-04-27T13:40:45.757Z,1.93
2023-04-27T13:43:14.389Z,2.30
2023-04-27T13:45:43.376Z,2.10
2023-04-27T13:48:12.140Z,1.90
2023-04-27T13:50:40.857Z,2.10
2023-04-27T13:53:09.558Z,2.17
2023-04-27T13:55:37.713Z,2.77
2023-04-27T13:58:06.321Z,2.33
2023-04-27T14:00:39.651Z,2.83
2023-04-27T14:08:29.515Z,2.60
2023-04-27T14:10:58.341Z,1.80
2023-04-27T14:13:26.985Z,2.20
2023-04-27T14:15:55.684Z,2.10
2023-04-27T14:18:31.948Z,2.50
2023-04-27T14:20:55.600Z,2.47
2023-04-27T14:23:23.656Z,2.27
2023-04-27T14:25:51.926Z,2.50
2023-04-27T14:28:20.459Z,1.90
2023-04-27T14:30:48.995Z,2.53
2023-04-27T14:33:16.986Z,2.43
2023-04-27T14:35:46.066Z,2.10
2023-04-27T14:38:15.086Z,2.37
2023-04-27T14:40:44.108Z,2.03
2023-04-27T14:43:13.088Z,2.10
2023-04-27T14:45:52.295Z,2.23
2023-04-27T14:48:11.452Z,2.37
2023-04-27T14:50:40.335Z,2.33
2023-04-27T14:53:08.840Z,2.43
2023-04-27T14:55:37.012Z,2.23
2023-04-27T14:58:06.008Z,1.90
2023-04-27T15:00:34.708Z,1.97
2023-04-27T15:03:03.399Z,2.17
2023-04-27T15:05:32.343Z,2.63
2023-04-27T15:08:02.089Z,1.93
2023-04-27T15:13:03.451Z,2.67
2023-04-27T15:15:31.896Z,3.20
2023-04-27T15:21:30.843Z,2.73
2023-04-27T15:23:59.488Z,2.33
2023-04-27T15:49:27.152Z,2.73
2023-04-27T16:07:23.088Z,2.53
2023-04-27T16:13:00.549Z,2.67
2023-04-27T16:58:20.792Z,3.70
2023-04-27T17:04:01.772Z,3.70
2023-04-27T17:06:30.871Z,3.50
2023-04-27T17:08:59.033Z,3.97
2023-04-27T17:11:27.737Z,4.77
2023-04-27T17:19:53.850Z,4.00
2023-04-27T17:22:22.010Z,4.13
2023-04-27T17:24:50.396Z,3.40
2023-04-27T17:27:18.918Z,3.10
2023-04-27T17:29:47.709Z,3.60
2023-04-27T17:32:16.018Z,4.47
2023-04-27T17:34:46.880Z,3.80
2023-04-27T17:52:11.524Z,3.63
2023-04-27T17:54:41.699Z,3.80
2023-04-27T17:57:10.380Z,3.70
2023-04-27T17:59:39.571Z,4.20
2023-04-27T18:02:07.819Z,4.37
2023-04-27T18:04:36.998Z,3.90
2023-04-27T18:07:05.328Z,3.87
2023-04-27T18:09:33.215Z,4.47
2023-04-27T18:12:02.708Z,4.03
2023-04-27T18:14:31.402Z,4.50
2023-04-27T18:16:59.804Z,4.20
2023-04-27T18:19:28.966Z,4.47
2023-04-27T18:21:57.564Z,4.73
2023-04-27T18:24:25.951Z,4.73
2023-04-27T18:26:54.012Z,3.87
2023-04-27T18:29:22.611Z,3.77
2023-04-27T18:31:51.294Z,4.37
2023-04-27T18:34:20.062Z,4.30
2023-04-27T18:36:51.862Z,4.40
2023-04-27T18:39:21.033Z,5.10
2023-04-27T18:41:49.739Z,4.77
2023-04-27T18:44:18.335Z,4.50
2023-04-27T18:46:47.084Z,4.67
2023-04-27T18:49:16.443Z,4.20
2023-04-27T18:51:45.200Z,4.17
2023-04-27T18:54:13.577Z,3.77
2023-04-27T18:56:41.476Z,4.03
2023-04-27T18:59:09.910Z,4.67
2023-04-27T19:01:38.861Z,5.17
2023-04-27T19:04:07.964Z,5.37
2023-04-27T19:06:36.979Z,6.60
2023-04-27T19:09:05.357Z,4.93
2023-04-27T19:11:33.432Z,4.83
2023-04-27T19:14:01.912Z,5.60
2023-04-27T19:16:30.450Z,5.63
2023-04-27T19:18:59.130Z,5.53
2023-04-27T19:21:27.282Z,5.10
2023-04-27T19:23:56.300Z,4.57
2023-04-27T19:26:24.664Z,4.60
2023-04-27T19:28:53.314Z,5.20
2023-04-27T19:31:21.753Z,4.27
2023-04-27T19:33:55.438Z,3.97
2023-04-27T19:36:20.350Z,4.67
2023-04-27T19:38:48.959Z,4.20
2023-04-27T19:41:18.012Z,4.47
2023-04-27T19:43:46.554Z,4.87
2023-04-27T19:46:14.981Z,4.97
2023-04-27T19:48:43.669Z,4.67
2023-04-27T19:51:12.545Z,4.33
2023-04-27T19:53:41.932Z,4.33
2023-04-27T19:56:09.772Z,4.80
2023-04-27T19:58:37.683Z,3.90
2023-04-27T20:01:06.804Z,4.63
2023-04-27T20:03:36.655Z,4.10
2023-04-27T20:06:05.494Z,4.90
2023-04-27T20:08:34.776Z,4.23
2023-04-27T20:11:03.069Z,4.03
2023-04-27T20:13:32.173Z,3.83
2023-04-27T20:16:00.146Z,3.90
2023-04-27T20:18:30.421Z,3.70
2023-04-27T20:20:59.442Z,4.23
2023-04-27T20:23:28.002Z,3.90
2023-04-27T20:25:56.062Z,4.33
2023-04-27T20:28:24.495Z,3.97
2023-04-27T20:30:52.826Z,3.50
2023-04-27T20:33:21.464Z,3.60
2023-04-27T20:35:49.992Z,4.00
2023-04-27T20:38:18.366Z,3.60
2023-04-27T20:40:46.909Z,4.17
2023-04-27T20:43:15.645Z,4.13
2023-04-27T20:45:44.086Z,3.30
2023-04-27T20:48:12.913Z,3.50
2023-04-27T20:50:40.871Z,3.43
2023-04-27T20:53:08.804Z,3.80
2023-04-27T20:55:37.593Z,3.37
2023-04-27T20:58:06.472Z,3.70
2023-04-27T21:00:34.867Z,3.17
2023-04-27T21:03:03.598Z,3.67
2023-04-27T21:05:31.803Z,3.10
2023-04-27T21:08:00.191Z,3.83
2023-04-27T21:10:28.638Z,3.73
2023-04-27T21:12:57.183Z,3.20
2023-04-27T21:15:25.730Z,3.20
2023-04-27T21:17:54.212Z,3.47
2023-04-27T21:20:23.286Z,3.53
2023-04-27T21:22:51.695Z,3.43
2023-04-27T21:25:22.264Z,3.20
2023-04-27T21:27:50.246Z,3.50
2023-04-27T21:30:18.598Z,3.17
2023-04-27T21:32:46.990Z,3.57
2023-04-27T21:35:14.976Z,3.20
2023-04-27T21:37:43.362Z,2.97
2023-04-27T21:40:12.006Z,3.27
2023-04-27T21:42:41.894Z,2.90
2023-04-27T21:45:10.371Z,3.07
2023-04-27T21:47:38.896Z,2.67
2023-04-27T21:50:08.797Z,2.90
2023-04-27T21:52:37.266Z,2.80
2023-04-27T21:55:06.166Z,2.63
2023-04-27T21:57:34.660Z,3.07
2023-04-27T22:00:04.905Z,3.50
2023-04-27T22:02:33.952Z,3.20
2023-04-27T22:05:03.030Z,3.93
2023-04-27T22:07:33.028Z,3.23
2023-04-27T22:10:02.268Z,3.07
2023-04-27T22:12:31.144Z,3.73
2023-04-27T22:14:59.700Z,3.37
2023-04-27T22:17:27.991Z,4.00
2023-04-27T22:19:56.979Z,3.40
2023-04-27T22:22:25.609Z,3.67
2023-04-27T22:24:53.996Z,3.20
2023-04-27T22:27:22.738Z,3.30
2023-04-27T22:32:18.551Z,2.80
2023-04-27T22:34:47.196Z,2.67
2023-04-27T22:37:15.828Z,2.67
2023-04-27T22:39:44.369Z,2.43
2023-04-27T22:42:12.823Z,2.50
2023-04-27T22:44:40.969Z,2.40
2023-04-27T22:47:08.916Z,2.77
2023-04-27T22:49:37.284Z,2.40
2023-04-27T22:52:06.023Z,2.57
2023-04-27T22:54:34.241Z,2.40
2023-04-27T22:57:03.008Z,2.60
2023-04-27T22:59:31.337Z,2.67
2023-04-27T23:12:21.202Z,2.60
2023-04-27T23:14:49.641Z,2.60
2023-04-27T23:17:17.988Z,2.50
2023-04-27T23:19:46.695Z,2.30
2023-04-27T23:22:15.054Z,2.60
2023-04-27T23:24:42.861Z,2.20
2023-04-27T23:27:11.273Z,2.50
2023-04-27T23:29:40.039Z,2.33
2023-04-27T23:32:08.399Z,2.03
2023-04-27T23:34:36.989Z,2.47
2023-04-27T23:37:05.495Z,2.77
2023-04-27T23:39:33.839Z,2.80
2023-04-27T23:42:01.967Z,2.23
2023-04-27T23:44:30.514Z,2.70
2023-04-27T23:46:58.978Z,2.20
2023-04-27T23:49:27.398Z,3.00
2023-04-27T23:51:55.842Z,2.27
2023-04-27T23:54:24.314Z,2.57
2023-04-27T23:56:52.661Z,2.53
2023-04-27T23:59:20.566Z,2.67
